sensor_id;sensor_type;location;lat;lon;timestamp;P1;durP1;ratioP1;P2;durP2;ratioP2
44764;SDS011;30484;52.382;5.260;2022-09-12T00:00:05;31.70;;;23.25;;
44764;SDS011;30484;52.382;5.260;2022-09-12T00:02:35;38.42;;;23.65;;
44764;SDS011;30484;52.382;5.260;2022-09-12T00:05:04;33.40;;;23.48;;
44764;SDS011;30484;52.382;5.260;2022-09-12T00:07:33;31.65;;;23.55;;
44764;SDS011;30484;52.382;5.260;2022-09-12T00:10:03;39.17;;;25.13;;
44764;SDS011;30484;52.382;5.260;2022-09-12T00:12:32;40.78;;;26.23;;
44764;SDS011;30484;52.382;5.260;2022-09-12T00:15:01;36.20;;;25.40;;
44764;SDS011;30484;52.382;5.260;2022-09-12T00:17:31;42.72;;;27.65;;
44764;SDS011;30484;52.382;5.260;2022-09-12T00:20:01;35.85;;;27.08;;
44764;SDS011;30484;52.382;5.260;2022-09-12T00:22:32;42.92;;;28.90;;
44764;SDS011;30484;52.382;5.260;2022-09-12T00:25:00;36.38;;;26.20;;
44764;SDS011;30484;52.382;5.260;2022-09-12T00:27:32;38.97;;;26.75;;
44764;SDS011;30484;52.382;5.260;2022-09-12T00:30:01;32.28;;;23.90;;
44764;SDS011;30484;52.382;5.260;2022-09-12T00:32:30;35.97;;;25.48;;
44764;SDS011;30484;52.382;5.260;2022-09-12T00:34:59;37.92;;;27.92;;
44764;SDS011;30484;52.382;5.260;2022-09-12T00:37:31;38.40;;;27.15;;
44764;SDS011;30484;52.382;5.260;2022-09-12T00:40:02;39.63;;;27.88;;
44764;SDS011;30484;52.382;5.260;2022-09-12T00:42:31;42.35;;;30.23;;
44764;SDS011;30484;52.382;5.260;2022-09-12T00:45:00;43.22;;;30.50;;
44764;SDS011;30484;52.382;5.260;2022-09-12T00:47:29;43.67;;;29.08;;
44764;SDS011;30484;52.382;5.260;2022-09-12T00:50:00;44.92;;;29.48;;
44764;SDS011;30484;52.382;5.260;2022-09-12T00:52:34;39.85;;;29.50;;
44764;SDS011;30484;52.382;5.260;2022-09-12T00:55:11;44.77;;;31.50;;
44764;SDS011;30484;52.382;5.260;2022-09-12T00:57:44;43.38;;;31.08;;
44764;SDS011;30484;52.382;5.260;2022-09-12T01:00:22;43.45;;;29.35;;
44764;SDS011;30484;52.382;5.260;2022-09-12T01:02:53;45.20;;;30.60;;
44764;SDS011;30484;52.382;5.260;2022-09-12T01:05:25;48.75;;;31.15;;
44764;SDS011;30484;52.382;5.260;2022-09-12T01:07:57;44.17;;;31.38;;
44764;SDS011;30484;52.382;5.260;2022-09-12T01:10:30;42.60;;;31.23;;
44764;SDS011;30484;52.382;5.260;2022-09-12T01:13:02;42.63;;;30.83;;
44764;SDS011;30484;52.382;5.260;2022-09-12T01:15:35;47.67;;;31.65;;
44764;SDS011;30484;52.382;5.260;2022-09-12T01:18:08;46.28;;;31.17;;
44764;SDS011;30484;52.382;5.260;2022-09-12T01:33:25;48.45;;;33.17;;
44764;SDS011;30484;52.382;5.260;2022-09-12T01:36:11;48.00;;;32.00;;
44764;SDS011;30484;52.382;5.260;2022-09-12T01:39:09;49.60;;;34.15;;
44764;SDS011;30484;52.382;5.260;2022-09-12T01:41:48;68.25;;;37.20;;
44764;SDS011;30484;52.382;5.260;2022-09-12T01:44:29;51.72;;;33.00;;
44764;SDS011;30484;52.382;5.260;2022-09-12T01:47:08;57.50;;;37.13;;
44764;SDS011;30484;52.382;5.260;2022-09-12T01:49:43;62.92;;;38.85;;
44764;SDS011;30484;52.382;5.260;2022-09-12T01:52:22;61.88;;;39.13;;
44764;SDS011;30484;52.382;5.260;2022-09-12T01:54:58;66.57;;;39.30;;
44764;SDS011;30484;52.382;5.260;2022-09-12T01:57:36;71.93;;;41.75;;
44764;SDS011;30484;52.382;5.260;2022-09-12T02:00:09;72.25;;;42.13;;
44764;SDS011;30484;52.382;5.260;2022-09-12T02:02:41;70.35;;;40.50;;
44764;SDS011;30484;52.382;5.260;2022-09-12T02:05:19;67.70;;;39.90;;
44764;SDS011;30484;52.382;5.260;2022-09-12T02:07:56;85.13;;;43.78;;
44764;SDS011;30484;52.382;5.260;2022-09-12T02:10:30;73.15;;;40.53;;
44764;SDS011;30484;52.382;5.260;2022-09-12T02:13:05;74.55;;;42.97;;
44764;SDS011;30484;52.382;5.260;2022-09-12T02:15:44;71.05;;;42.55;;
44764;SDS011;30484;52.382;5.260;2022-09-12T02:18:18;77.25;;;44.65;;
44764;SDS011;30484;52.382;5.260;2022-09-12T02:20:48;72.68;;;42.22;;
44764;SDS011;30484;52.382;5.260;2022-09-12T02:23:19;69.82;;;42.70;;
44764;SDS011;30484;52.382;5.260;2022-09-12T02:25:55;74.50;;;44.28;;
44764;SDS011;30484;52.382;5.260;2022-09-12T02:28:28;72.63;;;43.47;;
44764;SDS011;30484;52.382;5.260;2022-09-12T02:31:03;69.25;;;42.58;;
44764;SDS011;30484;52.382;5.260;2022-09-12T02:33:45;70.85;;;42.88;;
44764;SDS011;30484;52.382;5.260;2022-09-12T02:36:25;71.25;;;43.80;;
44764;SDS011;30484;52.382;5.260;2022-09-12T02:39:01;73.18;;;42.80;;
44764;SDS011;30484;52.382;5.260;2022-09-12T02:41:30;67.90;;;41.20;;
44764;SDS011;30484;52.382;5.260;2022-09-12T02:43:59;73.90;;;44.17;;
44764;SDS011;30484;52.382;5.260;2022-09-12T02:46:31;73.35;;;44.40;;
44764;SDS011;30484;52.382;5.260;2022-09-12T02:49:07;75.45;;;43.85;;
44764;SDS011;30484;52.382;5.260;2022-09-12T02:51:35;71.60;;;42.30;;
44764;SDS011;30484;52.382;5.260;2022-09-12T02:54:05;75.15;;;44.25;;
44764;SDS011;30484;52.382;5.260;2022-09-12T02:56:34;75.32;;;45.20;;
44764;SDS011;30484;52.382;5.260;2022-09-12T02:59:09;79.53;;;47.15;;
44764;SDS011;30484;52.382;5.260;2022-09-12T03:01:46;83.50;;;47.80;;
44764;SDS011;30484;52.382;5.260;2022-09-12T03:04:38;84.57;;;47.30;;
44764;SDS011;30484;52.382;5.260;2022-09-12T03:07:21;85.90;;;48.42;;
44764;SDS011;30484;52.382;5.260;2022-09-12T03:10:05;81.45;;;47.30;;
44764;SDS011;30484;52.382;5.260;2022-09-12T03:12:45;79.88;;;46.55;;
44764;SDS011;30484;52.382;5.260;2022-09-12T03:15:27;75.85;;;45.15;;
44764;SDS011;30484;52.382;5.260;2022-09-12T03:18:12;73.55;;;44.53;;
44764;SDS011;30484;52.382;5.260;2022-09-12T03:20:59;75.70;;;44.08;;
44764;SDS011;30484;52.382;5.260;2022-09-12T03:23:33;77.18;;;45.63;;
44764;SDS011;30484;52.382;5.260;2022-09-12T03:26:11;78.03;;;43.38;;
44764;SDS011;30484;52.382;5.260;2022-09-12T03:28:47;68.00;;;41.28;;
44764;SDS011;30484;52.382;5.260;2022-09-12T03:31:18;74.50;;;45.88;;
44764;SDS011;30484;52.382;5.260;2022-09-12T03:33:46;76.88;;;45.75;;
44764;SDS011;30484;52.382;5.260;2022-09-12T03:36:18;76.72;;;45.20;;
44764;SDS011;30484;52.382;5.260;2022-09-12T03:41:19;78.85;;;44.50;;
44764;SDS011;30484;52.382;5.260;2022-09-12T03:43:48;74.47;;;44.22;;
44764;SDS011;30484;52.382;5.260;2022-09-12T03:46:16;75.18;;;45.60;;
44764;SDS011;30484;52.382;5.260;2022-09-12T03:48:44;84.10;;;46.38;;
44764;SDS011;30484;52.382;5.260;2022-09-12T03:51:13;78.70;;;45.80;;
44764;SDS011;30484;52.382;5.260;2022-09-12T03:53:44;80.53;;;44.78;;
44764;SDS011;30484;52.382;5.260;2022-09-12T03:56:13;76.25;;;45.17;;
44764;SDS011;30484;52.382;5.260;2022-09-12T03:58:41;76.65;;;45.58;;
44764;SDS011;30484;52.382;5.260;2022-09-12T04:01:10;73.13;;;44.25;;
44764;SDS011;30484;52.382;5.260;2022-09-12T04:03:41;75.18;;;43.90;;
44764;SDS011;30484;52.382;5.260;2022-09-12T04:06:12;68.35;;;42.75;;
44764;SDS011;30484;52.382;5.260;2022-09-12T04:08:48;70.80;;;41.88;;
44764;SDS011;30484;52.382;5.260;2022-09-12T04:11:18;76.90;;;44.47;;
44764;SDS011;30484;52.382;5.260;2022-09-12T04:13:48;69.57;;;42.40;;
44764;SDS011;30484;52.382;5.260;2022-09-12T04:16:17;75.45;;;43.17;;
44764;SDS011;30484;52.382;5.260;2022-09-12T04:18:54;74.55;;;43.88;;
44764;SDS011;30484;52.382;5.260;2022-09-12T04:21:32;73.20;;;44.97;;
44764;SDS011;30484;52.382;5.260;2022-09-12T04:24:02;66.93;;;41.67;;
44764;SDS011;30484;52.382;5.260;2022-09-12T04:26:34;70.18;;;42.78;;
44764;SDS011;30484;52.382;5.260;2022-09-12T04:29:05;67.28;;;42.60;;
44764;SDS011;30484;52.382;5.260;2022-09-12T04:31:40;67.88;;;41.47;;
44764;SDS011;30484;52.382;5.260;2022-09-12T04:34:10;71.25;;;43.90;;
44764;SDS011;30484;52.382;5.260;2022-09-12T04:36:38;63.92;;;41.20;;
44764;SDS011;30484;52.382;5.260;2022-09-12T04:39:09;70.43;;;41.72;;
44764;SDS011;30484;52.382;5.260;2022-09-12T04:41:38;67.90;;;42.35;;
44764;SDS011;30484;52.382;5.260;2022-09-12T04:44:10;72.50;;;41.95;;
44764;SDS011;30484;52.382;5.260;2022-09-12T04:46:41;71.30;;;42.47;;
44764;SDS011;30484;52.382;5.260;2022-09-12T04:49:13;69.45;;;41.22;;
44764;SDS011;30484;52.382;5.260;2022-09-12T04:54:48;61.50;;;39.38;;
44764;SDS011;30484;52.382;5.260;2022-09-12T04:57:19;63.45;;;38.60;;
44764;SDS011;30484;52.382;5.260;2022-09-12T05:00:00;64.55;;;38.33;;
44764;SDS011;30484;52.382;5.260;2022-09-12T05:02:45;61.63;;;38.45;;
44764;SDS011;30484;52.382;5.260;2022-09-12T05:05:15;61.97;;;39.53;;
44764;SDS011;30484;52.382;5.260;2022-09-12T05:07:52;65.47;;;40.63;;
44764;SDS011;30484;52.382;5.260;2022-09-12T05:10:30;69.30;;;41.08;;
44764;SDS011;30484;52.382;5.260;2022-09-12T05:13:07;67.97;;;42.25;;
44764;SDS011;30484;52.382;5.260;2022-09-12T05:18:40;61.15;;;38.80;;
44764;SDS011;30484;52.382;5.260;2022-09-12T05:21:15;63.40;;;40.25;;
44764;SDS011;30484;52.382;5.260;2022-09-12T05:23:46;61.70;;;39.80;;
44764;SDS011;30484;52.382;5.260;2022-09-12T05:26:21;68.03;;;40.95;;
44764;SDS011;30484;52.382;5.260;2022-09-12T05:28:51;64.40;;;40.55;;
44764;SDS011;30484;52.382;5.260;2022-09-12T05:31:20;65.78;;;40.25;;
44764;SDS011;30484;52.382;5.260;2022-09-12T05:33:51;59.60;;;39.28;;
44764;SDS011;30484;52.382;5.260;2022-09-12T05:36:22;59.25;;;39.45;;
44764;SDS011;30484;52.382;5.260;2022-09-12T05:38:52;61.38;;;40.15;;
44764;SDS011;30484;52.382;5.260;2022-09-12T05:41:24;59.97;;;39.97;;
44764;SDS011;30484;52.382;5.260;2022-09-12T05:43:56;61.50;;;39.17;;
44764;SDS011;30484;52.382;5.260;2022-09-12T05:46:28;65.75;;;39.80;;
44764;SDS011;30484;52.382;5.260;2022-09-12T05:49:01;68.75;;;39.45;;
44764;SDS011;30484;52.382;5.260;2022-09-12T05:51:31;63.13;;;39.22;;
44764;SDS011;30484;52.382;5.260;2022-09-12T05:54:01;62.45;;;38.17;;
44764;SDS011;30484;52.382;5.260;2022-09-12T05:56:33;64.95;;;39.85;;
44764;SDS011;30484;52.382;5.260;2022-09-12T05:59:07;65.75;;;39.05;;
44764;SDS011;30484;52.382;5.260;2022-09-12T06:01:38;63.78;;;38.22;;
44764;SDS011;30484;52.382;5.260;2022-09-12T06:04:08;62.53;;;37.72;;
44764;SDS011;30484;52.382;5.260;2022-09-12T06:06:37;64.68;;;39.42;;
44764;SDS011;30484;52.382;5.260;2022-09-12T06:09:10;60.42;;;38.08;;
44764;SDS011;30484;52.382;5.260;2022-09-12T06:11:42;62.58;;;37.35;;
44764;SDS011;30484;52.382;5.260;2022-09-12T06:14:11;63.67;;;36.88;;
44764;SDS011;30484;52.382;5.260;2022-09-12T06:16:43;62.10;;;37.30;;
44764;SDS011;30484;52.382;5.260;2022-09-12T06:19:16;63.28;;;37.97;;
44764;SDS011;30484;52.382;5.260;2022-09-12T06:21:47;59.47;;;35.40;;
44764;SDS011;30484;52.382;5.260;2022-09-12T06:24:18;60.03;;;38.53;;
44764;SDS011;30484;52.382;5.260;2022-09-12T06:26:49;64.47;;;39.33;;
44764;SDS011;30484;52.382;5.260;2022-09-12T06:29:19;66.28;;;39.03;;
44764;SDS011;30484;52.382;5.260;2022-09-12T06:31:47;62.67;;;36.75;;
44764;SDS011;30484;52.382;5.260;2022-09-12T06:34:16;63.22;;;38.58;;
44764;SDS011;30484;52.382;5.260;2022-09-12T06:36:45;62.65;;;36.97;;
44764;SDS011;30484;52.382;5.260;2022-09-12T06:39:16;61.72;;;38.45;;
44764;SDS011;30484;52.382;5.260;2022-09-12T06:41:47;68.90;;;40.58;;
44764;SDS011;30484;52.382;5.260;2022-09-12T06:44:18;77.28;;;39.40;;
44764;SDS011;30484;52.382;5.260;2022-09-12T06:46:49;68.75;;;40.45;;
44764;SDS011;30484;52.382;5.260;2022-09-12T06:49:18;63.10;;;39.60;;
44764;SDS011;30484;52.382;5.260;2022-09-12T06:51:47;64.63;;;38.50;;
44764;SDS011;30484;52.382;5.260;2022-09-12T06:54:16;67.25;;;38.13;;
44764;SDS011;30484;52.382;5.260;2022-09-12T06:56:45;61.58;;;37.92;;
44764;SDS011;30484;52.382;5.260;2022-09-12T06:59:15;63.97;;;37.78;;
44764;SDS011;30484;52.382;5.260;2022-09-12T07:01:43;64.03;;;38.13;;
44764;SDS011;30484;52.382;5.260;2022-09-12T07:04:12;62.22;;;38.90;;
44764;SDS011;30484;52.382;5.260;2022-09-12T07:06:43;59.92;;;38.00;;
44764;SDS011;30484;52.382;5.260;2022-09-12T07:09:12;60.00;;;37.05;;
44764;SDS011;30484;52.382;5.260;2022-09-12T07:11:43;62.40;;;37.45;;
44764;SDS011;30484;52.382;5.260;2022-09-12T07:14:13;61.80;;;36.33;;
44764;SDS011;30484;52.382;5.260;2022-09-12T07:16:43;54.55;;;35.38;;
44764;SDS011;30484;52.382;5.260;2022-09-12T07:19:11;58.92;;;34.60;;
44764;SDS011;30484;52.382;5.260;2022-09-12T07:21:40;62.95;;;36.13;;
44764;SDS011;30484;52.382;5.260;2022-09-12T07:24:08;59.22;;;34.65;;
44764;SDS011;30484;52.382;5.260;2022-09-12T07:26:37;57.33;;;34.33;;
44764;SDS011;30484;52.382;5.260;2022-09-12T07:29:08;52.85;;;33.25;;
44764;SDS011;30484;52.382;5.260;2022-09-12T07:32:04;55.47;;;32.58;;
44764;SDS011;30484;52.382;5.260;2022-09-12T07:34:33;53.50;;;32.85;;
44764;SDS011;30484;52.382;5.260;2022-09-12T07:37:02;51.33;;;31.90;;
44764;SDS011;30484;52.382;5.260;2022-09-12T07:39:31;50.85;;;31.83;;
44764;SDS011;30484;52.382;5.260;2022-09-12T07:41:59;50.55;;;32.63;;
44764;SDS011;30484;52.382;5.260;2022-09-12T07:44:43;49.30;;;31.23;;
44764;SDS011;30484;52.382;5.260;2022-09-12T07:47:13;51.80;;;32.10;;
44764;SDS011;30484;52.382;5.260;2022-09-12T07:49:43;46.58;;;30.17;;
44764;SDS011;30484;52.382;5.260;2022-09-12T07:52:13;49.78;;;30.48;;
44764;SDS011;30484;52.382;5.260;2022-09-12T07:54:41;50.25;;;31.27;;
44764;SDS011;30484;52.382;5.260;2022-09-12T07:57:10;47.95;;;30.85;;
44764;SDS011;30484;52.382;5.260;2022-09-12T07:59:39;45.33;;;29.48;;
44764;SDS011;30484;52.382;5.260;2022-09-12T08:02:19;46.38;;;28.35;;
44764;SDS011;30484;52.382;5.260;2022-09-12T08:04:47;44.38;;;29.13;;
44764;SDS011;30484;52.382;5.260;2022-09-12T08:07:16;44.58;;;28.55;;
44764;SDS011;30484;52.382;5.260;2022-09-12T08:09:45;48.97;;;28.83;;
44764;SDS011;30484;52.382;5.260;2022-09-12T08:12:18;41.72;;;27.17;;
44764;SDS011;30484;52.382;5.260;2022-09-12T08:14:47;38.70;;;25.67;;
44764;SDS011;30484;52.382;5.260;2022-09-12T08:17:15;40.17;;;26.95;;
44764;SDS011;30484;52.382;5.260;2022-09-12T08:19:45;40.97;;;26.63;;
44764;SDS011;30484;52.382;5.260;2022-09-12T08:22:14;45.05;;;26.10;;
44764;SDS011;30484;52.382;5.260;2022-09-12T08:24:47;38.55;;;25.70;;
44764;SDS011;30484;52.382;5.260;2022-09-12T08:27:15;42.40;;;26.95;;
44764;SDS011;30484;52.382;5.260;2022-09-12T08:29:43;41.05;;;25.60;;
44764;SDS011;30484;52.382;5.260;2022-09-12T08:32:12;40.47;;;25.73;;
44764;SDS011;30484;52.382;5.260;2022-09-12T08:34:40;38.00;;;25.25;;
44764;SDS011;30484;52.382;5.260;2022-09-12T08:37:10;36.85;;;25.23;;
44764;SDS011;30484;52.382;5.260;2022-09-12T08:39:38;37.20;;;23.55;;
44764;SDS011;30484;52.382;5.260;2022-09-12T08:42:08;36.97;;;23.90;;
44764;SDS011;30484;52.382;5.260;2022-09-12T08:44:54;37.28;;;24.63;;
44764;SDS011;30484;52.382;5.260;2022-09-12T08:47:42;36.58;;;23.40;;
44764;SDS011;30484;52.382;5.260;2022-09-12T08:50:14;32.58;;;21.65;;
44764;SDS011;30484;52.382;5.260;2022-09-12T08:52:51;35.15;;;22.42;;
44764;SDS011;30484;52.382;5.260;2022-09-12T08:55:26;33.83;;;23.17;;
44764;SDS011;30484;52.382;5.260;2022-09-12T09:00:36;37.50;;;20.27;;
44764;SDS011;30484;52.382;5.260;2022-09-12T09:03:19;33.17;;;20.52;;
44764;SDS011;30484;52.382;5.260;2022-09-12T09:06:25;30.02;;;19.40;;
44764;SDS011;30484;52.382;5.260;2022-09-12T09:09:24;31.25;;;21.40;;
44764;SDS011;30484;52.382;5.260;2022-09-12T09:12:10;31.73;;;20.15;;
44764;SDS011;30484;52.382;5.260;2022-09-12T09:14:53;29.73;;;19.45;;
44764;SDS011;30484;52.382;5.260;2022-09-12T09:17:51;26.65;;;16.00;;
44764;SDS011;30484;52.382;5.260;2022-09-12T09:20:26;23.33;;;15.50;;
44764;SDS011;30484;52.382;5.260;2022-09-12T09:23:02;21.35;;;14.20;;
44764;SDS011;30484;52.382;5.260;2022-09-12T09:25:41;25.42;;;16.35;;
44764;SDS011;30484;52.382;5.260;2022-09-12T09:28:17;21.98;;;14.60;;
44764;SDS011;30484;52.382;5.260;2022-09-12T09:30:48;21.60;;;14.05;;
44764;SDS011;30484;52.382;5.260;2022-09-12T09:33:20;20.45;;;12.68;;
44764;SDS011;30484;52.382;5.260;2022-09-12T09:35:58;18.80;;;12.52;;
44764;SDS011;30484;52.382;5.260;2022-09-12T09:38:36;21.38;;;11.05;;
44764;SDS011;30484;52.382;5.260;2022-09-12T09:41:22;16.52;;;10.60;;
44764;SDS011;30484;52.382;5.260;2022-09-12T09:44:06;17.00;;;11.18;;
44764;SDS011;30484;52.382;5.260;2022-09-12T09:46:36;15.48;;;11.02;;
44764;SDS011;30484;52.382;5.260;2022-09-12T09:49:04;18.80;;;11.05;;
44764;SDS011;30484;52.382;5.260;2022-09-12T09:51:35;9.60;;;6.43;;
44764;SDS011;30484;52.382;5.260;2022-09-12T09:54:09;11.20;;;5.90;;
44764;SDS011;30484;52.382;5.260;2022-09-12T09:56:47;9.55;;;5.63;;
44764;SDS011;30484;52.382;5.260;2022-09-12T09:59:17;9.63;;;5.70;;
44764;SDS011;30484;52.382;5.260;2022-09-12T10:01:52;11.75;;;6.07;;
44764;SDS011;30484;52.382;5.260;2022-09-12T10:04:23;11.10;;;5.57;;
44764;SDS011;30484;52.382;5.260;2022-09-12T10:06:55;11.00;;;6.22;;
44764;SDS011;30484;52.382;5.260;2022-09-12T10:09:25;8.70;;;6.45;;
44764;SDS011;30484;52.382;5.260;2022-09-12T10:11:57;12.60;;;7.35;;
44764;SDS011;30484;52.382;5.260;2022-09-12T10:14:31;13.10;;;8.70;;
44764;SDS011;30484;52.382;5.260;2022-09-12T10:20:00;15.82;;;7.95;;
44764;SDS011;30484;52.382;5.260;2022-09-12T10:22:47;11.38;;;8.00;;
44764;SDS011;30484;52.382;5.260;2022-09-12T10:25:15;13.30;;;9.70;;
44764;SDS011;30484;52.382;5.260;2022-09-12T10:27:52;14.85;;;9.02;;
44764;SDS011;30484;52.382;5.260;2022-09-12T10:30:23;10.88;;;8.02;;
44764;SDS011;30484;52.382;5.260;2022-09-12T10:32:55;13.25;;;9.50;;
44764;SDS011;30484;52.382;5.260;2022-09-12T10:35:41;10.70;;;7.68;;
44764;SDS011;30484;52.382;5.260;2022-09-12T10:38:15;11.38;;;7.80;;
44764;SDS011;30484;52.382;5.260;2022-09-12T10:40:54;14.63;;;9.10;;
44764;SDS011;30484;52.382;5.260;2022-09-12T10:43:27;19.45;;;8.77;;
44764;SDS011;30484;52.382;5.260;2022-09-12T10:46:19;13.55;;;8.68;;
44764;SDS011;30484;52.382;5.260;2022-09-12T10:51:53;11.15;;;6.70;;
44764;SDS011;30484;52.382;5.260;2022-09-12T10:54:25;13.60;;;7.85;;
44764;SDS011;30484;52.382;5.260;2022-09-12T11:00:03;14.10;;;9.15;;
44764;SDS011;30484;52.382;5.260;2022-09-12T11:02:47;12.85;;;8.50;;
44764;SDS011;30484;52.382;5.260;2022-09-12T11:05:36;11.00;;;7.35;;
44764;SDS011;30484;52.382;5.260;2022-09-12T11:08:18;9.13;;;7.38;;
44764;SDS011;30484;52.382;5.260;2022-09-12T11:11:13;10.43;;;6.40;;
44764;SDS011;30484;52.382;5.260;2022-09-12T11:14:01;10.48;;;6.20;;
44764;SDS011;30484;52.382;5.260;2022-09-12T11:16:50;11.73;;;6.82;;
44764;SDS011;30484;52.382;5.260;2022-09-12T11:19:30;8.13;;;5.05;;
44764;SDS011;30484;52.382;5.260;2022-09-12T11:22:29;9.40;;;6.60;;
44764;SDS011;30484;52.382;5.260;2022-09-12T11:25:14;9.70;;;5.13;;
44764;SDS011;30484;52.382;5.260;2022-09-12T11:27:59;7.95;;;5.05;;
44764;SDS011;30484;52.382;5.260;2022-09-12T11:30:50;6.95;;;4.95;;
44764;SDS011;30484;52.382;5.260;2022-09-12T11:33:38;8.52;;;4.85;;
44764;SDS011;30484;52.382;5.260;2022-09-12T11:36:14;6.50;;;4.10;;
44764;SDS011;30484;52.382;5.260;2022-09-12T11:39:00;7.93;;;4.40;;
44764;SDS011;30484;52.382;5.260;2022-09-12T11:41:38;6.30;;;4.30;;
44764;SDS011;30484;52.382;5.260;2022-09-12T11:44:11;6.53;;;4.60;;
44764;SDS011;30484;52.382;5.260;2022-09-12T11:46:45;7.65;;;3.58;;
44764;SDS011;30484;52.382;5.260;2022-09-12T11:49:24;5.03;;;3.72;;
44764;SDS011;30484;52.382;5.260;2022-09-12T11:52:02;7.68;;;3.75;;
44764;SDS011;30484;52.382;5.260;2022-09-12T11:54:38;9.80;;;4.60;;
44764;SDS011;30484;52.382;5.260;2022-09-12T11:57:19;7.55;;;4.80;;
44764;SDS011;30484;52.382;5.260;2022-09-12T11:59:56;6.38;;;4.68;;
44764;SDS011;30484;52.382;5.260;2022-09-12T12:02:29;10.70;;;4.38;;
44764;SDS011;30484;52.382;5.260;2022-09-12T12:05:14;5.63;;;3.80;;
44764;SDS011;30484;52.382;5.260;2022-09-12T12:07:50;5.60;;;3.20;;
44764;SDS011;30484;52.382;5.260;2022-09-12T12:10:30;8.45;;;3.67;;
44764;SDS011;30484;52.382;5.260;2022-09-12T12:13:05;6.68;;;3.22;;
44764;SDS011;30484;52.382;5.260;2022-09-12T12:15:43;4.63;;;3.50;;
44764;SDS011;30484;52.382;5.260;2022-09-12T12:18:15;4.32;;;3.70;;
44764;SDS011;30484;52.382;5.260;2022-09-12T12:20:50;9.90;;;3.72;;
44764;SDS011;30484;52.382;5.260;2022-09-12T12:23:27;6.43;;;4.13;;
44764;SDS011;30484;52.382;5.260;2022-09-12T12:25:58;6.40;;;4.00;;
44764;SDS011;30484;52.382;5.260;2022-09-12T12:31:25;4.68;;;2.97;;
44764;SDS011;30484;52.382;5.260;2022-09-12T12:33:57;6.93;;;3.13;;
44764;SDS011;30484;52.382;5.260;2022-09-12T12:36:50;5.07;;;3.55;;
44764;SDS011;30484;52.382;5.260;2022-09-12T12:57:31;4.75;;;2.83;;
44764;SDS011;30484;52.382;5.260;2022-09-12T13:00:25;4.25;;;2.40;;
44764;SDS011;30484;52.382;5.260;2022-09-12T13:03:01;6.30;;;2.63;;
44764;SDS011;30484;52.382;5.260;2022-09-12T13:05:45;6.55;;;2.40;;
44764;SDS011;30484;52.382;5.260;2022-09-12T13:08:26;3.97;;;2.67;;
44764;SDS011;30484;52.382;5.260;2022-09-12T13:10:58;3.70;;;2.17;;
44764;SDS011;30484;52.382;5.260;2022-09-12T13:13:33;2.85;;;2.10;;
44764;SDS011;30484;52.382;5.260;2022-09-12T13:16:05;3.35;;;2.25;;
44764;SDS011;30484;52.382;5.260;2022-09-12T13:18:39;2.85;;;1.95;;
44764;SDS011;30484;52.382;5.260;2022-09-12T13:21:11;3.13;;;2.00;;
44764;SDS011;30484;52.382;5.260;2022-09-12T13:23:43;5.80;;;2.50;;
44764;SDS011;30484;52.382;5.260;2022-09-12T13:26:25;3.70;;;2.47;;
44764;SDS011;30484;52.382;5.260;2022-09-12T13:29:07;2.85;;;2.08;;
44764;SDS011;30484;52.382;5.260;2022-09-12T13:31:42;3.63;;;2.22;;
44764;SDS011;30484;52.382;5.260;2022-09-12T13:34:16;3.97;;;2.17;;
44764;SDS011;30484;52.382;5.260;2022-09-12T13:36:53;4.40;;;2.45;;
44764;SDS011;30484;52.382;5.260;2022-09-12T13:39:55;3.90;;;2.40;;
44764;SDS011;30484;52.382;5.260;2022-09-12T13:42:39;6.18;;;2.33;;
44764;SDS011;30484;52.382;5.260;2022-09-12T13:45:12;5.65;;;2.72;;
44764;SDS011;30484;52.382;5.260;2022-09-12T13:47:46;2.80;;;1.90;;
44764;SDS011;30484;52.382;5.260;2022-09-12T13:50:25;5.65;;;2.45;;
44764;SDS011;30484;52.382;5.260;2022-09-12T13:52:58;3.00;;;2.28;;
44764;SDS011;30484;52.382;5.260;2022-09-12T13:55:33;5.50;;;2.50;;
44764;SDS011;30484;52.382;5.260;2022-09-12T13:58:06;6.03;;;3.05;;
44764;SDS011;30484;52.382;5.260;2022-09-12T14:00:58;4.38;;;2.38;;
44764;SDS011;30484;52.382;5.260;2022-09-12T14:03:32;4.10;;;2.33;;
44764;SDS011;30484;52.382;5.260;2022-09-12T14:06:24;5.57;;;2.92;;
44764;SDS011;30484;52.382;5.260;2022-09-12T14:08:53;3.88;;;2.40;;
44764;SDS011;30484;52.382;5.260;2022-09-12T14:11:25;3.25;;;2.40;;
44764;SDS011;30484;52.382;5.260;2022-09-12T14:13:56;4.45;;;2.65;;
44764;SDS011;30484;52.382;5.260;2022-09-12T14:16:24;4.70;;;2.33;;
44764;SDS011;30484;52.382;5.260;2022-09-12T14:18:54;3.40;;;2.45;;
44764;SDS011;30484;52.382;5.260;2022-09-12T14:21:31;3.83;;;2.53;;
44764;SDS011;30484;52.382;5.260;2022-09-12T14:24:01;7.60;;;2.70;;
44764;SDS011;30484;52.382;5.260;2022-09-12T14:26:35;4.03;;;2.40;;
44764;SDS011;30484;52.382;5.260;2022-09-12T14:29:05;3.72;;;2.33;;
44764;SDS011;30484;52.382;5.260;2022-09-12T14:31:35;6.53;;;2.30;;
44764;SDS011;30484;52.382;5.260;2022-09-12T14:34:10;3.33;;;2.05;;
44764;SDS011;30484;52.382;5.260;2022-09-12T14:36:42;3.35;;;2.38;;
44764;SDS011;30484;52.382;5.260;2022-09-12T14:39:17;4.20;;;2.55;;
44764;SDS011;30484;52.382;5.260;2022-09-12T14:42:03;3.65;;;1.92;;
44764;SDS011;30484;52.382;5.260;2022-09-12T14:44:33;3.03;;;2.08;;
44764;SDS011;30484;52.382;5.260;2022-09-12T14:47:12;6.95;;;2.10;;
44764;SDS011;30484;52.382;5.260;2022-09-12T14:49:47;3.47;;;1.70;;
44764;SDS011;30484;52.382;5.260;2022-09-12T14:52:22;5.45;;;2.10;;
44764;SDS011;30484;52.382;5.260;2022-09-12T14:54:57;4.32;;;2.40;;
44764;SDS011;30484;52.382;5.260;2022-09-12T14:57:33;6.35;;;2.95;;
44764;SDS011;30484;52.382;5.260;2022-09-12T15:00:17;3.95;;;1.90;;
44764;SDS011;30484;52.382;5.260;2022-09-12T15:02:50;2.60;;;1.95;;
44764;SDS011;30484;52.382;5.260;2022-09-12T15:05:21;4.40;;;2.08;;
44764;SDS011;30484;52.382;5.260;2022-09-12T15:07:53;4.13;;;2.50;;
44764;SDS011;30484;52.382;5.260;2022-09-12T15:10:27;3.80;;;2.30;;
44764;SDS011;30484;52.382;5.260;2022-09-12T15:13:04;3.95;;;2.00;;
44764;SDS011;30484;52.382;5.260;2022-09-12T15:15:49;1.98;;;1.65;;
44764;SDS011;30484;52.382;5.260;2022-09-12T15:18:21;3.28;;;2.15;;
44764;SDS011;30484;52.382;5.260;2022-09-12T15:20:52;4.85;;;2.10;;
44764;SDS011;30484;52.382;5.260;2022-09-12T15:23:31;4.25;;;2.53;;
44764;SDS011;30484;52.382;5.260;2022-09-12T15:26:04;4.28;;;3.13;;
44764;SDS011;30484;52.382;5.260;2022-09-12T15:28:35;5.30;;;2.33;;
44764;SDS011;30484;52.382;5.260;2022-09-12T15:31:05;4.63;;;2.00;;
44764;SDS011;30484;52.382;5.260;2022-09-12T15:33:40;5.10;;;2.20;;
44764;SDS011;30484;52.382;5.260;2022-09-12T15:36:13;2.92;;;1.75;;
44764;SDS011;30484;52.382;5.260;2022-09-12T15:38:45;4.88;;;2.00;;
44764;SDS011;30484;52.382;5.260;2022-09-12T15:41:15;3.83;;;1.90;;
44764;SDS011;30484;52.382;5.260;2022-09-12T15:43:47;3.20;;;1.92;;
44764;SDS011;30484;52.382;5.260;2022-09-12T15:46:16;4.50;;;2.08;;
44764;SDS011;30484;52.382;5.260;2022-09-12T15:48:45;6.25;;;2.60;;
44764;SDS011;30484;52.382;5.260;2022-09-12T15:51:14;6.38;;;2.75;;
44764;SDS011;30484;52.382;5.260;2022-09-12T15:53:44;10.27;;;2.63;;
44764;SDS011;30484;52.382;5.260;2022-09-12T15:56:14;6.57;;;2.30;;
44764;SDS011;30484;52.382;5.260;2022-09-12T15:58:44;9.10;;;2.60;;
44764;SDS011;30484;52.382;5.260;2022-09-12T16:01:25;4.28;;;2.45;;
44764;SDS011;30484;52.382;5.260;2022-09-12T16:03:54;4.30;;;2.65;;
44764;SDS011;30484;52.382;5.260;2022-09-12T16:06:23;5.38;;;2.47;;